Time;durP1;ratioP1;P1;durP2;ratioP2;P2;SDS_P1;SDS_P2;PMS_P1;PMS_P2;Temp;Humidity;BMP_temperature;BMP_pressure;BME280_temperature;BME280_humidity;BME280_pressure;Samples;Min_cycle;Max_cycle;Signal;HPM_P1;HPM_P2
2022/10/18 00:01:59;;;;;;;24.00;13.95;;;;;;;6.23;62.99;101099.38;5071903;28;20024;-66
2022/10/18 00:04:24;;;;;;;17.65;11.98;;;;;;;6.64;61.12;101096.03;5073061;28;20025;-66
2022/10/18 00:06:50;;;;;;;20.25;12.60;;;;;;;6.64;59.89;101093.25;5088901;28;20032;-66
2022/10/18 00:09:15;;;;;;;18.58;12.02;;;;;;;6.31;60.95;101087.72;5090202;28;20033;-66
2022/10/18 00:11:41;;;;;;;19.90;12.40;;;;;;;6.51;60.71;101089.81;5091635;28;20030;-66
2022/10/18 00:14:06;;;;;;;21.70;11.52;;;;;;;6.46;61.18;101087.88;5091836;28;20478;-66
2022/10/18 00:16:32;;;;;;;18.27;10.48;;;;;;;6.10;62.08;101081.19;5070254;28;20490;-66
2022/10/18 00:18:57;;;;;;;19.38;11.07;;;;;;;6.41;61.84;101082.25;5070082;28;20131;-66
2022/10/18 00:21:25;;;;;;;16.90;10.55;;;;;;;6.71;61.01;101086.34;5070137;28;20032;-66
2022/10/18 00:23:51;;;;;;;24.17;11.35;;;;;;;6.85;60.52;101081.13;5074719;28;20028;-66
2022/10/18 00:26:20;;;;;;;16.92;10.35;;;;;;;6.71;60.55;101074.38;5074138;28;20032;-66
2022/10/18 00:28:50;;;;;;;18.98;9.90;;;;;;;6.64;60.59;101079.34;5071501;28;20115;-66
2022/10/18 00:31:19;;;;;;;20.10;11.00;;;;;;;6.59;60.46;101072.63;5073251;28;20028;-66
2022/10/18 00:33:50;;;;;;;14.55;10.07;;;;;;;6.29;61.74;101068.56;5091573;28;20034;-66
2022/10/18 00:36:16;;;;;;;17.75;9.55;;;;;;;6.46;60.96;101070.34;5088127;28;20097;-66
2022/10/18 00:38:42;;;;;;;17.58;10.43;;;;;;;6.48;60.81;101075.63;5091739;28;20020;-66
2022/10/18 00:41:10;;;;;;;17.13;9.73;;;;;;;6.70;60.34;101067.13;5090298;28;20073;-66
2022/10/18 00:43:57;;;;;;;17.63;9.73;;;;;;;6.59;60.87;101067.06;5091592;28;20023;-66
2022/10/18 00:46:23;;;;;;;15.55;9.07;;;;;;;6.71;60.42;101064.09;5076198;28;20115;-66
2022/10/18 00:48:50;;;;;;;15.20;9.93;;;;;;;6.50;60.78;101068.69;5091487;28;20462;-66
2022/10/18 00:51:18;;;;;;;20.65;10.48;;;;;;;6.25;61.42;101059.06;5091820;28;20533;-66
2022/10/18 00:53:44;;;;;;;18.38;9.20;;;;;;;6.00;62.73;101054.16;5082075;28;20028;-66
2022/10/18 00:56:11;;;;;;;18.05;10.73;;;;;;;6.14;62.51;101065.66;5079770;28;20563;-66
2022/10/18 00:58:36;;;;;;;15.32;10.00;;;;;;;6.46;61.57;101062.00;5075146;28;20059;-66
2022/10/18 01:01:02;;;;;;;16.63;9.77;;;;;;;6.63;60.43;101060.97;5075167;28;20150;-66
2022/10/18 01:03:28;;;;;;;19.67;10.68;;;;;;;6.86;59.93;101059.72;5074950;28;20029;-66
2022/10/18 01:05:53;;;;;;;14.85;10.05;;;;;;;6.31;61.21;101062.72;5075632;28;20031;-66
2022/10/18 01:08:46;;;;;;;15.10;8.95;;;;;;;6.52;60.18;101058.16;5094036;28;20540;-66
2022/10/18 01:11:20;;;;;;;16.30;10.38;;;;;;;6.84;59.78;101059.97;5087396;28;20032;-66
2022/10/18 01:14:10;;;;;;;15.00;10.43;;;;;;;6.78;59.83;101052.72;5074718;28;20029;-66
2022/10/18 01:16:42;;;;;;;17.05;9.88;;;;;;;6.65;59.81;101054.03;5079692;28;20028;-66
2022/10/18 01:19:13;;;;;;;17.58;10.77;;;;;;;6.31;60.23;101049.69;5094769;28;20040;-66
2022/10/18 01:21:49;;;;;;;29.85;10.90;;;;;;;6.14;61.60;101055.41;5090606;28;20032;-66
2022/10/18 01:24:43;;;;;;;18.55;10.63;;;;;;;5.51;63.91;101047.59;5094874;28;20460;-66
2022/10/18 01:27:36;;;;;;;19.75;10.70;;;;;;;5.28;64.09;101040.41;5093317;28;20096;-66
2022/10/18 01:30:26;;;;;;;22.45;11.68;;;;;;;5.18;64.60;101043.91;5094620;28;20189;-66
2022/10/18 01:32:56;;;;;;;18.27;9.65;;;;;;;5.15;65.36;101034.16;5074231;28;20039;-66
2022/10/18 01:35:30;;;;;;;16.30;10.85;;;;;;;5.33;64.97;101037.72;5073065;28;20032;-66
2022/10/18 01:38:00;;;;;;;24.75;10.63;;;;;;;5.45;65.15;101038.38;5089010;28;20051;-66
2022/10/18 01:40:29;;;;;;;18.67;11.45;;;;;;;5.09;66.16;101031.59;5091601;28;20493;-66
2022/10/18 01:42:54;;;;;;;23.30;11.43;;;;;;;4.88;66.60;101036.91;5074028;28;20583;-66
2022/10/18 01:45:22;;;;;;;18.27;9.95;;;;;;;4.74;68.17;101036.47;5073936;28;20020;-66
2022/10/18 01:47:49;;;;;;;15.45;10.85;;;;;;;4.68;67.55;101029.16;5090066;28;20020;-65
2022/10/18 01:50:27;;;;;;;18.35;11.07;;;;;;;4.83;67.51;101039.63;5092992;28;20020;-66
2022/10/18 01:52:53;;;;;;;18.88;10.73;;;;;;;4.78;67.10;101026.53;5074234;28;20025;-66
2022/10/18 01:55:25;;;;;;;17.08;9.50;;;;;;;4.94;66.58;101033.09;5072841;28;20085;-66
2022/10/18 01:58:17;;;;;;;18.02;9.80;;;;;;;5.15;65.54;101031.41;5074820;28;20475;-66
2022/10/18 02:00:43;;;;;;;18.27;10.65;;;;;;;5.40;64.70;101027.22;5072368;28;20078;-66
2022/10/18 02:03:28;;;;;;;14.15;9.63;;;;;;;5.18;64.64;101017.00;5072001;28;20024;-66
2022/10/18 02:06:14;;;;;;;16.63;10.43;;;;;;;5.19;64.34;101017.84;5073717;28;20411;-66
2022/10/18 02:08:49;;;;;;;19.40;10.77;;;;;;;5.14;65.30;101021.41;5093638;28;20034;-66
2022/10/18 02:11:17;;;;;;;17.52;10.90;;;;;;;5.36;64.85;101020.53;5092899;28;20023;-66
2022/10/18 02:13:47;;;;;;;18.42;9.50;;;;;;;5.26;64.55;101020.41;5093867;28;20023;-66
2022/10/18 02:16:20;;;;;;;17.85;10.15;;;;;;;5.19;64.68;101018.69;5080007;28;20053;-66
2022/10/18 02:18:54;;;;;;;17.20;10.45;;;;;;;5.12;65.12;101017.19;5093706;28;20413;-66
2022/10/18 02:21:21;;;;;;;15.20;10.38;;;;;;;5.11;64.83;101023.84;5086874;28;20024;-66
2022/10/18 02:23:47;;;;;;;13.23;9.25;;;;;;;5.04;65.32;101015.75;5073529;28;20107;-66
2022/10/18 02:26:14;;;;;;;13.85;9.85;;;;;;;4.84;66.07;101019.13;5074814;28;20052;-66
2022/10/18 02:28:40;;;;;;;14.52;10.98;;;;;;;4.87;66.27;101010.28;5093693;28;20020;-66
2022/10/18 02:31:20;;;;;;;19.33;10.23;;;;;;;5.01;66.83;101019.03;5089203;28;20029;-66
2022/10/18 02:34:00;;;;;;;16.83;9.65;;;;;;;4.80;67.47;101013.25;5073326;28;20028;-66
2022/10/18 02:36:41;;;;;;;15.80;9.93;;;;;;;4.66;67.76;101017.50;5092199;28;20127;-66
2022/10/18 02:39:13;;;;;;;16.33;9.40;;;;;;;4.62;67.59;101009.72;5073236;28;20025;-66
2022/10/18 02:41:39;;;;;;;26.45;10.73;;;;;;;4.55;68.46;101017.38;5081002;28;20374;-65
2022/10/18 02:44:05;;;;;;;15.82;10.30;;;;;;;4.46;67.73;101011.44;5087753;28;20110;-65
2022/10/18 02:46:30;;;;;;;14.45;10.20;;;;;;;4.45;68.40;101017.22;5091832;28;20608;-66
2022/10/18 02:48:56;;;;;;;15.57;9.20;;;;;;;4.40;68.30;101028.25;5093046;28;20046;-66
2022/10/18 02:51:21;;;;;;;14.43;10.40;;;;;;;4.31;68.23;101025.91;5086885;28;20028;-66
2022/10/18 02:53:47;;;;;;;14.27;9.80;;;;;;;4.24;69.31;101030.81;5072847;28;20036;-66
2022/10/18 02:56:12;;;;;;;13.13;9.82;;;;;;;4.04;69.39;101029.38;5076592;28;20012;-66
2022/10/18 02:58:38;;;;;;;15.48;9.43;;;;;;;3.96;69.40;101029.81;5093094;28;20028;-65
2022/10/18 03:01:03;;;;;;;17.63;10.85;;;;;;;3.91;69.48;101038.84;5088019;28;20024;-65
2022/10/18 03:03:29;;;;;;;14.45;10.18;;;;;;;3.90;69.74;101039.94;5089322;28;20032;-65
2022/10/18 03:05:55;;;;;;;19.05;11.05;;;;;;;3.90;69.42;101039.13;5091977;28;20072;-65
2022/10/18 03:08:21;;;;;;;19.80;11.07;;;;;;;3.74;70.02;101040.78;5092846;28;20024;-65
2022/10/18 03:10:47;;;;;;;17.08;11.52;;;;;;;3.88;70.02;101039.38;5091812;28;20074;-66
2022/10/18 03:13:13;;;;;;;15.98;10.80;;;;;;;3.79;70.37;101043.63;5072306;28;20504;-65
2022/10/18 03:15:39;;;;;;;17.90;10.02;;;;;;;3.81;70.80;101037.88;5071999;28;20704;-65
2022/10/18 03:18:04;;;;;;;15.13;10.25;;;;;;;3.80;70.64;101039.78;5090389;28;20028;-66
2022/10/18 03:20:30;;;;;;;21.25;10.27;;;;;;;3.53;71.43;101023.81;5091187;28;20085;-66
2022/10/18 03:22:55;;;;;;;16.17;11.48;;;;;;;3.69;70.78;101035.19;5086789;28;20062;-65
2022/10/18 03:25:21;;;;;;;19.60;12.52;;;;;;;3.78;70.65;101033.66;5092515;28;20024;-65
2022/10/18 03:27:46;;;;;;;16.88;10.13;;;;;;;3.63;70.70;101028.72;5091559;28;20027;-65
2022/10/18 03:30:12;;;;;;;14.65;10.95;;;;;;;3.74;70.62;101035.25;5092473;28;20451;-65
2022/10/18 03:32:38;;;;;;;21.15;11.90;;;;;;;3.78;70.56;101037.28;5075060;28;20032;-65
2022/10/18 03:35:05;;;;;;;17.10;11.32;;;;;;;3.95;69.50;101036.44;5087559;28;20021;-66
2022/10/18 03:37:31;;;;;;;22.55;11.85;;;;;;;3.86;69.70;101035.16;5072626;28;20042;-65
2022/10/18 03:39:56;;;;;;;22.60;10.93;;;;;;;3.83;70.36;101047.59;5070570;28;20027;-66
2022/10/18 03:42:22;;;;;;;22.58;11.45;;;;;;;4.05;69.38;101038.53;5084894;28;20549;-66
2022/10/18 03:44:47;;;;;;;19.20;10.75;;;;;;;4.08;69.58;101047.16;5090662;28;20023;-66
2022/10/18 03:47:13;;;;;;;19.10;10.35;;;;;;;4.11;70.42;101031.16;5090930;28;20024;-66
2022/10/18 03:49:38;;;;;;;17.92;10.52;;;;;;;4.07;70.36;101036.34;5090751;28;20031;-65
2022/10/18 03:52:04;;;;;;;19.58;10.48;;;;;;;4.13;70.26;101037.28;5089684;28;20153;-66
2022/10/18 03:54:30;;;;;;;14.13;9.73;;;;;;;3.97;70.89;101041.72;5091907;28;20020;-65
2022/10/18 03:56:55;;;;;;;15.43;9.98;;;;;;;4.06;70.83;101045.75;5090926;28;20107;-66
2022/10/18 03:59:21;;;;;;;17.00;10.50;;;;;;;4.05;71.39;101042.13;5091822;28;20024;-65
2022/10/18 04:01:47;;;;;;;15.05;10.45;;;;;;;4.05;71.20;101038.53;5091212;28;20101;-65
2022/10/18 04:04:13;;;;;;;16.23;11.18;;;;;;;4.14;70.80;101036.19;5089383;28;20374;-66
2022/10/18 04:06:39;;;;;;;15.38;10.52;;;;;;;4.34;70.46;101047.56;5089819;28;20099;-66
2022/10/18 04:09:04;;;;;;;18.48;10.93;;;;;;;4.52;69.25;101053.91;5091924;28;20059;-66
2022/10/18 04:11:30;;;;;;;15.82;11.68;;;;;;;4.38;69.27;101044.28;5089636;28;20056;-66
2022/10/18 04:13:56;;;;;;;19.92;11.43;;;;;;;4.29;69.98;101047.47;5091705;28;20024;-65
2022/10/18 04:16:21;;;;;;;17.05;10.63;;;;;;;4.14;70.27;101039.78;5084207;28;20088;-66
2022/10/18 04:18:46;;;;;;;28.27;12.23;;;;;;;4.18;70.85;101045.66;5090165;28;20020;-65
2022/10/18 04:21:12;;;;;;;18.52;12.70;;;;;;;4.14;70.54;101047.25;5090433;28;20024;-66
2022/10/18 04:23:38;;;;;;;32.85;12.15;;;;;;;3.89;71.20;101045.75;5073221;28;20020;-65
2022/10/18 04:26:03;;;;;;;23.13;13.90;;;;;;;4.07;70.66;101041.91;5072859;28;20024;-65
2022/10/18 04:28:29;;;;;;;27.75;16.45;;;;;;;3.94;70.57;101043.06;5081580;28;20383;-65
2022/10/18 04:30:54;;;;;;;21.50;13.95;;;;;;;3.94;71.35;101043.06;5075535;28;20024;-65
2022/10/18 04:33:20;;;;;;;19.23;13.32;;;;;;;3.96;70.55;101037.28;5075698;28;20040;-65
2022/10/18 04:35:46;;;;;;;23.13;12.95;;;;;;;3.93;71.00;101041.38;5085274;28;20032;-65
2022/10/18 04:38:13;;;;;;;21.45;10.82;;;;;;;3.88;70.71;101044.09;5074729;28;20031;-65
2022/10/18 04:40:38;;;;;;;22.83;10.93;;;;;;;3.79;70.97;101033.41;5082562;28;20036;-65
2022/10/18 04:43:04;;;;;;;13.85;8.82;;;;;;;3.92;70.89;101040.56;5082926;28;20070;-66
2022/10/18 04:45:29;;;;;;;29.55;10.82;;;;;;;4.01;70.34;101037.34;5094985;28;20023;-65
2022/10/18 04:47:55;;;;;;;18.42;10.63;;;;;;;3.99;69.83;101029.31;5094150;28;20028;-65
2022/10/18 04:50:20;;;;;;;17.92;10.45;;;;;;;4.03;70.15;101035.16;5093711;28;20028;-65
2022/10/18 04:52:46;;;;;;;29.58;12.93;;;;;;;4.09;69.29;101039.69;5080949;28;20077;-65
2022/10/18 04:55:11;;;;;;;29.73;12.65;;;;;;;4.17;69.46;101032.91;5074487;28;20464;-65
2022/10/18 04:57:36;;;;;;;27.10;12.45;;;;;;;4.33;68.99;101031.19;5084984;28;20028;-65
2022/10/18 05:00:04;;;;;;;22.33;12.52;;;;;;;4.27;69.17;101035.81;5091590;28;20020;-66
2022/10/18 05:02:29;;;;;;;21.17;13.70;;;;;;;4.35;69.63;101032.63;5083938;28;20397;-67
2022/10/18 05:04:55;;;;;;;30.27;16.85;;;;;;;4.46;68.71;101038.28;5095244;28;20031;-66
2022/10/18 05:07:20;;;;;;;59.83;33.03;;;;;;;4.45;69.56;101031.06;5093392;28;20027;-67
2022/10/18 05:09:46;;;;;;;84.22;37.10;;;;;;;4.46;69.81;101041.91;5094499;28;20028;-66
2022/10/18 05:12:11;;;;;;;42.20;21.80;;;;;;;4.37;70.11;101034.31;5091347;28;20016;-67
2022/10/18 05:14:36;;;;;;;65.40;48.47;;;;;;;4.34;70.11;101036.50;5094836;28;20020;-66
2022/10/18 05:17:02;;;;;;;73.28;45.80;;;;;;;4.46;69.24;101041.91;5094162;28;20024;-67
2022/10/18 05:19:27;;;;;;;32.70;22.00;;;;;;;4.61;68.49;101041.28;5094690;28;20040;-67
2022/10/18 05:21:53;;;;;;;36.42;16.23;;;;;;;4.70;68.32;101040.81;5083881;28;20027;-66
2022/10/18 05:24:18;;;;;;;36.83;24.13;;;;;;;4.84;68.26;101044.06;5089138;28;20027;-69
2022/10/18 05:26:44;;;;;;;69.47;32.60;;;;;;;4.91;67.83;101048.31;5077795;28;20117;-70
2022/10/18 05:29:09;;;;;;;54.25;29.73;;;;;;;4.67;68.21;101046.91;5092775;28;20027;-68
2022/10/18 05:31:35;;;;;;;34.15;21.13;;;;;;;4.61;68.80;101041.28;5073290;28;20079;-69
2022/10/18 05:34:01;;;;;;;31.20;15.32;;;;;;;4.84;69.31;101044.06;5092440;28;20016;-68
2022/10/18 05:36:26;;;;;;;34.78;13.90;;;;;;;4.82;69.52;101043.50;5074575;28;20036;-69
2022/10/18 05:38:52;;;;;;;22.88;12.98;;;;;;;4.83;69.58;101040.47;5091915;28;20032;-69
2022/10/18 05:41:18;;;;;;;18.90;12.38;;;;;;;4.62;70.24;101048.50;5087801;28;20057;-69
2022/10/18 05:43:44;;;;;;;25.08;11.85;;;;;;;4.95;69.40;101045.03;5085030;28;20040;-66
2022/10/18 05:46:11;;;;;;;113.28;19.30;;;;;;;5.07;69.70;101054.06;5071654;28;20028;-68
2022/10/18 05:48:37;;;;;;;20.67;10.85;;;;;;;5.31;69.04;101051.00;5080554;28;20143;-68
2022/10/18 05:51:03;;;;;;;25.60;13.02;;;;;;;5.66;68.74;101051.63;5075029;28;20114;-68
2022/10/18 05:53:28;;;;;;;34.90;19.15;;;;;;;5.87;67.88;101050.72;5089389;28;20102;-67
2022/10/18 05:55:54;;;;;;;22.88;12.00;;;;;;;5.88;68.43;101045.97;5079861;28;20061;-67
2022/10/18 05:58:19;;;;;;;19.88;10.05;;;;;;;5.77;68.81;101045.06;5094191;28;20016;-67
2022/10/18 06:00:45;;;;;;;24.08;14.30;;;;;;;5.98;68.82;101054.41;5083360;28;20075;-69
2022/10/18 06:03:10;;;;;;;17.50;11.95;;;;;;;6.07;67.90;101054.78;5088628;28;20495;-69
2022/10/18 06:05:36;;;;;;;16.90;11.30;;;;;;;6.18;67.80;101061.25;5093344;28;20027;-68
2022/10/18 06:08:01;;;;;;;21.80;11.43;;;;;;;6.35;67.32;101061.09;5090681;28;20050;-68
2022/10/18 06:10:27;;;;;;;15.85;11.20;;;;;;;6.54;66.22;101060.66;5090562;28;20031;-68
2022/10/18 06:12:53;;;;;;;17.17;9.90;;;;;;;6.73;65.16;101064.66;5073276;28;20020;-69
2022/10/18 06:15:18;;;;;;;18.75;9.63;;;;;;;6.93;64.46;101062.25;5073087;28;20032;-69
2022/10/18 06:34:33;;;;;;;16.92;11.30;;;;;;;8.07;60.91;101054.97;5140716;27;20563;-68
2022/10/18 06:36:59;;;;;;;21.58;11.55;;;;;;;8.25;60.56;101063.84;5118859;28;20476;-67
2022/10/18 06:39:25;;;;;;;17.33;11.05;;;;;;;8.39;60.18;101059.41;5103451;28;20036;-66
2022/10/18 06:41:51;;;;;;;17.30;9.38;;;;;;;8.33;59.45;101066.06;5106628;28;20027;-68
2022/10/18 06:44:16;;;;;;;18.58;9.68;;;;;;;8.45;59.72;101059.38;5107682;28;20040;-68
2022/10/18 06:46:43;;;;;;;15.70;9.68;;;;;;;8.40;60.11;101068.56;5116296;28;20088;-69
2022/10/18 06:49:10;;;;;;;18.08;9.65;;;;;;;8.32;60.00;101066.34;5105309;28;20504;-67
2022/10/18 06:51:35;;;;;;;18.98;10.15;;;;;;;8.39;59.71;101062.19;5107814;28;20051;-69
2022/10/18 06:54:02;;;;;;;16.85;9.02;;;;;;;8.29;59.92;101057.44;5108953;28;20509;-70
2022/10/18 06:56:27;;;;;;;19.52;9.63;;;;;;;8.65;59.09;101064.09;5106892;28;20051;-70
2022/10/18 06:58:52;;;;;;;13.15;9.15;;;;;;;8.73;58.96;101055.16;5105810;28;20067;-68
2022/10/18 07:01:18;;;;;;;16.83;9.65;;;;;;;8.96;58.94;101058.41;5106834;28;20077;-70
2022/10/18 07:03:46;;;;;;;12.10;8.95;;;;;;;9.12;58.05;101059.19;5105433;28;20016;-71
2022/10/18 07:06:14;;;;;;;15.18;9.68;;;;;;;9.10;58.07;101053.88;5120631;28;20024;-69
2022/10/18 07:08:40;;;;;;;16.80;9.27;;;;;;;8.95;58.85;101046.41;5106347;28;20450;-69
2022/10/18 07:11:06;;;;;;;13.27;8.93;;;;;;;8.99;58.98;101046.69;5105704;28;20024;-68
2022/10/18 07:13:33;;;;;;;20.42;9.65;;;;;;;9.30;57.68;101040.94;5107260;28;20544;-69
2022/10/18 07:16:09;;;;;;;13.90;9.30;;;;;;;9.47;57.48;101039.72;5098523;27;20027;-70
2022/10/18 07:18:43;;;;;;;17.73;8.80;;;;;;;9.54;56.64;101034.66;5107483;28;20019;-68
2022/10/18 07:21:14;;;;;;;15.13;9.00;;;;;;;9.60;57.33;101033.50;5127085;27;20023;-70
2022/10/18 07:23:41;;;;;;;24.27;10.65;;;;;;;9.78;56.54;101034.75;5128338;27;20023;-70
2022/10/18 07:26:18;;;;;;;12.00;8.70;;;;;;;9.79;56.12;101027.22;5105370;28;20093;-69
2022/10/18 07:28:45;;;;;;;18.48;8.50;;;;;;;10.14;55.48;101024.41;5096167;28;20483;-67
2022/10/18 07:31:11;;;;;;;17.80;9.43;;;;;;;10.38;54.68;101022.47;5087486;28;20121;-70
2022/10/18 07:33:37;;;;;;;20.20;10.85;;;;;;;10.52;54.48;101019.84;5091984;28;20075;-67
2022/10/18 07:36:06;;;;;;;17.95;10.25;;;;;;;10.88;53.15;101012.97;5094229;28;20063;-67
2022/10/18 07:38:32;;;;;;;16.05;9.55;;;;;;;10.91;53.09;101017.16;5093298;28;20034;-67
2022/10/18 07:40:58;;;;;;;16.20;10.73;;;;;;;11.00;52.80;101015.34;5092837;28;20486;-66
2022/10/18 07:43:25;;;;;;;17.13;9.60;;;;;;;11.17;51.47;101005.59;5092234;28;20026;-67
2022/10/18 07:45:55;;;;;;;13.40;8.90;;;;;;;11.38;51.52;101006.13;5093982;28;20528;-67
2022/10/18 07:48:21;;;;;;;19.08;9.35;;;;;;;11.82;50.49;101001.22;5092139;28;20497;-67
2022/10/18 07:50:46;;;;;;;11.45;8.98;;;;;;;12.02;50.34;100991.69;5092942;28;20035;-65
2022/10/18 07:53:12;;;;;;;18.25;9.30;;;;;;;12.17;49.48;100990.56;5093975;28;20027;-66
2022/10/18 07:55:37;;;;;;;16.33;9.18;;;;;;;11.61;51.16;100993.19;5089594;28;20100;-66
2022/10/18 07:58:03;;;;;;;15.52;9.82;;;;;;;11.97;50.78;100985.31;5083141;28;20097;-67
2022/10/18 08:00:28;;;;;;;14.32;10.27;;;;;;;12.29;51.05;100978.84;5086640;28;20019;-68
2022/10/18 08:02:58;;;;;;;13.60;9.40;;;;;;;12.02;52.97;100985.22;5077098;28;20079;-68
2022/10/18 08:05:25;;;;;;;13.10;8.98;;;;;;;12.34;52.25;100980.72;5090781;28;20510;-68
2022/10/18 08:07:51;;;;;;;14.07;9.98;;;;;;;12.49;51.31;100971.19;5090730;28;20027;-69
2022/10/18 08:10:17;;;;;;;13.63;10.18;;;;;;;12.84;51.63;100977.16;5083346;28;20029;-68
2022/10/18 08:12:42;;;;;;;14.82;10.10;;;;;;;13.06;51.76;100979.25;5088417;28;20020;-68
2022/10/18 08:15:08;;;;;;;20.08;9.30;;;;;;;13.38;50.09;100970.09;5092948;28;20028;-68
2022/10/18 08:17:34;;;;;;;16.13;9.52;;;;;;;13.52;50.36;100973.72;5093126;28;20023;-68
2022/10/18 08:19:59;;;;;;;16.88;9.50;;;;;;;13.56;49.61;100971.09;5093057;28;20032;-70
2022/10/18 08:22:24;;;;;;;15.55;9.35;;;;;;;13.96;49.76;100959.97;5090936;28;20027;-70
2022/10/18 08:24:50;;;;;;;17.02;10.10;;;;;;;14.09;49.07;100958.19;5093100;28;20490;-71
2022/10/18 08:27:15;;;;;;;18.10;9.55;;;;;;;14.06;48.44;100953.22;5091948;28;20030;-70
2022/10/18 08:29:41;;;;;;;16.60;9.70;;;;;;;14.26;49.04;100945.38;5093569;28;20025;-71
2022/10/18 08:32:07;;;;;;;17.65;8.80;;;;;;;14.38;49.30;100945.59;5091375;28;20489;-73
2022/10/18 08:34:33;;;;;;;10.07;8.00;;;;;;;14.43;48.65;100939.00;5090593;28;20035;-70
2022/10/18 08:36:59;;;;;;;11.43;8.95;;;;;;;14.10;49.34;100931.72;5092938;28;20024;-72
2022/10/18 08:39:25;;;;;;;14.43;8.23;;;;;;;14.07;49.56;100926.75;5092232;28;20039;-73
2022/10/18 08:42:15;;;;;;;13.85;8.88;;;;;;;14.39;49.05;100929.53;5089550;28;20096;-72
2022/10/18 08:44:46;;;;;;;16.92;9.73;;;;;;;14.68;48.67;100926.16;5091131;28;20143;-70
2022/10/18 08:47:32;;;;;;;21.90;8.90;;;;;;;14.90;48.37;100924.41;5077135;28;20413;-73
2022/10/18 08:50:03;;;;;;;15.73;8.70;;;;;;;14.73;47.86;100914.78;5092339;28;20040;-72
2022/10/18 08:52:43;;;;;;;13.30;8.05;;;;;;;15.21;48.08;100917.81;5091371;28;20115;-71
2022/10/18 08:55:12;;;;;;;10.98;8.88;;;;;;;15.21;47.58;100917.81;5092805;28;20026;-71
2022/10/18 08:57:38;;;;;;;12.60;8.02;;;;;;;14.70;48.03;100906.94;5089220;28;20076;-72
2022/10/18 09:00:21;;;;;;;11.57;7.60;;;;;;;15.16;47.49;100903.88;5091280;28;20035;-67
2022/10/18 09:03:26;;;;;;;11.82;9.05;;;;;;;15.33;46.22;100908.66;5090585;28;20020;-69
2022/10/18 09:06:08;;;;;;;15.02;9.43;;;;;;;15.45;46.18;100899.56;5080739;28;20058;-68
2022/10/18 09:08:49;;;;;;;14.88;8.38;;;;;;;15.64;45.32;100896.38;5085380;28;20024;-67
2022/10/18 09:11:22;;;;;;;12.70;7.90;;;;;;;15.75;45.38;100890.34;5092900;28;20077;-68
2022/10/18 09:13:59;;;;;;;15.00;9.00;;;;;;;15.83;44.92;100890.34;5077732;28;20021;-68
2022/10/18 09:16:31;;;;;;;11.57;8.15;;;;;;;16.06;44.99;100884.50;5072951;28;20695;-68
2022/10/18 09:18:56;;;;;;;15.15;7.32;;;;;;;16.18;44.25;100882.97;5089922;28;20110;-67
2022/10/18 09:21:46;;;;;;;13.82;7.78;;;;;;;16.08;44.59;100878.50;5090941;28;20039;-68
2022/10/18 09:24:16;;;;;;;10.40;7.35;;;;;;;16.42;44.40;100883.16;5090705;28;20063;-69
2022/10/18 09:26:46;;;;;;;;;;;;;;;16.11;44.22;100867.38;5092587;28;20059;-70
2022/10/18 09:29:40;;;;;;;10.83;7.80;;;;;;;16.56;44.21;100867.97;5090836;28;19908;-68
2022/10/18 09:32:30;;;;;;;12.60;7.68;;;;;;;16.41;42.28;100855.25;5033947;28;21047;-68
2022/10/18 09:35:02;;;;;;;7.47;6.43;;;;;;;15.82;43.77;100856.81;5071705;28;20421;-67
2022/10/18 09:37:31;;;;;;;8.85;6.88;;;;;;;15.61;43.55;100854.72;5071721;28;20024;-69
2022/10/18 09:40:16;;;;;;;10.48;7.05;;;;;;;16.45;43.26;100852.59;5073489;28;20084;-69
2022/10/18 09:43:10;;;;;;;10.30;6.40;;;;;;;16.74;41.38;100848.06;5079174;28;20498;-69
2022/10/18 09:45:42;;;;;;;10.15;6.38;;;;;;;16.68;41.21;100830.50;5084608;28;20417;-69
2022/10/18 09:48:26;;;;;;;23.30;7.65;;;;;;;16.30;42.31;100832.25;5081677;28;20426;-70
2022/10/18 09:51:10;;;;;;;10.95;6.53;;;;;;;16.70;42.71;100839.44;5086485;28;20452;-69
2022/10/18 09:53:54;;;;;;;11.15;6.70;;;;;;;17.09;42.04;100825.19;5071328;28;20024;-69
2022/10/18 09:56:36;;;;;;;9.63;6.30;;;;;;;17.25;41.91;100823.41;5075852;28;20031;-71
2022/10/18 09:59:02;;;;;;;9.07;5.30;;;;;;;17.51;40.80;100813.81;5078647;28;20439;-68
2022/10/18 10:01:30;;;;;;;10.45;5.80;;;;;;;17.65;40.22;100804.16;5078208;28;20042;-69
2022/10/18 10:03:56;;;;;;;9.00;5.93;;;;;;;17.50;39.02;100803.69;5079224;28;20394;-70
2022/10/18 10:06:33;;;;;;;9.90;5.78;;;;;;;17.91;38.53;100801.00;5082423;28;20020;-71
2022/10/18 10:09:04;;;;;;;9.65;6.28;;;;;;;17.81;38.76;100785.31;5079377;28;20019;-69
2022/10/18 10:11:34;;;;;;;10.43;5.57;;;;;;;17.27;39.98;100786.28;5077261;28;20025;-69
2022/10/18 10:14:21;;;;;;;10.03;5.97;;;;;;;17.12;40.63;100782.09;5073313;28;20028;-70
2022/10/18 10:17:02;;;;;;;6.40;5.70;;;;;;;17.56;40.19;100777.97;5076435;28;20089;-69
2022/10/18 10:19:31;;;;;;;9.18;6.10;;;;;;;18.02;39.17;100778.72;5078306;28;20024;-69
2022/10/18 10:22:09;;;;;;;7.22;6.03;;;;;;;18.14;38.69;100762.94;5079847;28;20016;-69
2022/10/18 10:24:52;;;;;;;15.38;6.90;;;;;;;18.18;38.79;100758.22;5083243;28;20135;-71
2022/10/18 10:27:42;;;;;;;11.88;6.50;;;;;;;18.05;39.02;100751.75;5078596;28;20405;-67
2022/10/18 10:30:26;;;;;;;12.30;6.25;;;;;;;17.82;40.32;100747.34;5082605;28;20456;-67
2022/10/18 10:32:53;;;;;;;12.98;6.32;;;;;;;18.07;38.99;100750.19;5070023;28;20037;-66
2022/10/18 10:35:23;;;;;;;9.65;5.88;;;;;;;17.96;39.41;100743.31;5083908;28;20028;-66
2022/10/18 10:37:55;;;;;;;8.88;5.78;;;;;;;17.96;38.54;100727.19;5089005;28;20505;-66
2022/10/18 10:40:22;;;;;;;10.02;6.03;;;;;;;17.95;39.17;100731.19;5087470;28;20032;-66
2022/10/18 10:43:17;;;;;;;10.38;6.63;;;;;;;17.57;39.59;100715.41;5087507;28;20012;-66
2022/10/18 10:45:57;;;;;;;14.70;6.43;;;;;;;18.00;39.68;100713.16;5086210;28;20115;-66
2022/10/18 10:48:25;;;;;;;9.45;6.28;;;;;;;17.46;40.01;100705.72;5072634;28;20507;-66
2022/10/18 10:51:00;;;;;;;13.45;5.75;;;;;;;17.93;38.73;100695.94;5071365;28;20586;-65
2022/10/18 10:53:34;;;;;;;9.50;5.90;;;;;;;18.10;38.82;100695.72;5080762;28;20041;-67
2022/10/18 10:56:00;;;;;;;6.85;5.07;;;;;;;18.58;37.82;100691.44;5080203;28;20047;-67
2022/10/18 10:58:32;;;;;;;11.88;4.82;;;;;;;18.58;37.28;100680.09;5076612;28;20453;-67
2022/10/18 11:01:17;;;;;;;10.48;6.07;;;;;;;18.84;37.46;100673.97;5082434;28;20354;-67
2022/10/18 11:03:48;;;;;;;10.63;6.38;;;;;;;18.70;36.94;100670.72;5082085;28;20493;-67
2022/10/18 11:06:36;;;;;;;12.13;6.47;;;;;;;18.80;36.39;100670.19;5075004;28;20028;-67
2022/10/18 11:09:08;;;;;;;6.65;5.38;;;;;;;18.76;35.42;100658.78;5091623;28;20089;-67
2022/10/18 11:11:40;;;;;;;8.35;4.95;;;;;;;19.05;34.37;100650.22;5085674;28;20486;-66
2022/10/18 11:14:20;;;;;;;12.52;5.85;;;;;;;19.27;33.86;100645.97;5089476;28;20123;-66
2022/10/18 11:17:10;;;;;;;11.18;5.05;;;;;;;19.55;32.01;100641.34;5091292;28;20027;-67
2022/10/18 11:20:00;;;;;;;6.00;4.35;;;;;;;19.62;32.30;100624.50;5093948;28;20036;-66
2022/10/18 11:22:31;;;;;;;7.93;4.75;;;;;;;19.43;32.96;100625.25;5092704;28;20113;-67
2022/10/18 11:24:57;;;;;;;6.07;4.38;;;;;;;19.16;32.76;100620.16;5092885;28;20028;-67
2022/10/18 11:27:39;;;;;;;10.80;4.72;;;;;;;19.55;33.22;100610.13;5094200;28;20046;-67
2022/10/18 11:30:12;;;;;;;7.60;4.80;;;;;;;19.49;32.60;100604.75;5087660;28;20024;-66
2022/10/18 11:33:00;;;;;;;13.50;5.30;;;;;;;19.46;32.62;100597.00;5090427;28;20034;-66
2022/10/18 11:35:26;;;;;;;15.45;4.65;;;;;;;19.63;31.27;100592.94;5091918;28;20118;-66
2022/10/18 11:37:52;;;;;;;14.77;5.80;;;;;;;19.88;32.19;100586.16;5090981;28;20115;-67
2022/10/18 11:40:42;;;;;;;10.88;5.10;;;;;;;19.82;32.05;100587.66;5084492;28;20024;-67
2022/10/18 11:43:44;;;;;;;7.72;4.45;;;;;;;19.76;31.53;100579.41;5090319;28;20035;-67
2022/10/18 11:46:30;;;;;;;11.18;4.57;;;;;;;19.81;30.43;100577.50;5080881;28;20046;-67
2022/10/18 11:49:31;;;;;;;8.65;4.82;;;;;;;19.91;30.01;100565.56;5086316;28;20031;-67
2022/10/18 11:52:08;;;;;;;7.68;4.75;;;;;;;20.14;29.66;100567.66;5091614;28;20577;-67